sensor_id;sensor_type;location;lat;lon;timestamp;P1;durP1;ratioP1;P2;durP2;ratioP2
17365;SDS011;8800;50.118;9.900;2023-03-31T00:02:00;4.95;;;1.65;;
17365;SDS011;8800;50.118;9.900;2023-03-31T00:04:28;4.82;;;1.25;;
17365;SDS011;8800;50.118;9.900;2023-03-31T00:06:56;6.72;;;1.33;;
17365;SDS011;8800;50.118;9.900;2023-03-31T00:09:22;7.50;;;1.83;;
17365;SDS011;8800;50.118;9.900;2023-03-31T00:11:49;5.13;;;1.40;;
17365;SDS011;8800;50.118;9.900;2023-03-31T00:14:15;7.25;;;1.77;;
17365;SDS011;8800;50.118;9.900;2023-03-31T00:16:43;8.27;;;1.52;;
17365;SDS011;8800;50.118;9.900;2023-03-31T00:19:10;4.55;;;1.13;;
17365;SDS011;8800;50.118;9.900;2023-03-31T00:21:43;5.65;;;1.55;;
17365;SDS011;8800;50.118;9.900;2023-03-31T00:24:10;4.85;;;1.00;;
17365;SDS011;8800;50.118;9.900;2023-03-31T00:26:37;2.60;;;0.60;;
17365;SDS011;8800;50.118;9.900;2023-03-31T00:29:04;5.80;;;1.05;;
17365;SDS011;8800;50.118;9.900;2023-03-31T00:31:31;4.35;;;1.30;;
17365;SDS011;8800;50.118;9.900;2023-03-31T00:33:58;4.22;;;0.73;;
17365;SDS011;8800;50.118;9.900;2023-03-31T00:36:24;5.15;;;0.90;;
17365;SDS011;8800;50.118;9.900;2023-03-31T00:38:54;5.03;;;1.13;;
17365;SDS011;8800;50.118;9.900;2023-03-31T00:41:20;5.55;;;1.00;;
17365;SDS011;8800;50.118;9.900;2023-03-31T00:44:09;6.60;;;1.15;;
17365;SDS011;8800;50.118;9.900;2023-03-31T00:46:37;7.38;;;1.10;;
17365;SDS011;8800;50.118;9.900;2023-03-31T00:49:07;5.55;;;0.93;;
17365;SDS011;8800;50.118;9.900;2023-03-31T00:51:37;3.95;;;0.95;;
17365;SDS011;8800;50.118;9.900;2023-03-31T00:54:05;5.72;;;1.13;;
17365;SDS011;8800;50.118;9.900;2023-03-31T00:56:33;5.53;;;1.00;;
17365;SDS011;8800;50.118;9.900;2023-03-31T00:59:02;6.95;;;1.08;;
17365;SDS011;8800;50.118;9.900;2023-03-31T01:01:29;5.40;;;0.77;;
17365;SDS011;8800;50.118;9.900;2023-03-31T01:03:55;5.95;;;1.20;;
17365;SDS011;8800;50.118;9.900;2023-03-31T01:06:23;3.90;;;1.05;;
17365;SDS011;8800;50.118;9.900;2023-03-31T01:08:50;3.20;;;0.80;;
17365;SDS011;8800;50.118;9.900;2023-03-31T01:11:19;5.40;;;1.00;;
17365;SDS011;8800;50.118;9.900;2023-03-31T01:13:45;4.40;;;0.95;;
17365;SDS011;8800;50.118;9.900;2023-03-31T01:16:14;6.43;;;0.70;;
17365;SDS011;8800;50.118;9.900;2023-03-31T01:18:41;5.07;;;0.98;;
17365;SDS011;8800;50.118;9.900;2023-03-31T01:24:15;6.88;;;1.00;;
17365;SDS011;8800;50.118;9.900;2023-03-31T01:26:51;3.00;;;0.60;;
17365;SDS011;8800;50.118;9.900;2023-03-31T01:29:26;9.43;;;1.80;;
17365;SDS011;8800;50.118;9.900;2023-03-31T01:32:17;4.30;;;0.70;;
17365;SDS011;8800;50.118;9.900;2023-03-31T01:35:01;7.30;;;0.80;;
17365;SDS011;8800;50.118;9.900;2023-03-31T01:37:47;6.30;;;0.95;;
17365;SDS011;8800;50.118;9.900;2023-03-31T01:40:34;5.22;;;0.80;;
17365;SDS011;8800;50.118;9.900;2023-03-31T01:43:05;3.42;;;0.77;;
17365;SDS011;8800;50.118;9.900;2023-03-31T01:45:36;7.28;;;1.38;;
17365;SDS011;8800;50.118;9.900;2023-03-31T01:48:08;5.93;;;1.48;;
17365;SDS011;8800;50.118;9.900;2023-03-31T01:50:40;8.30;;;1.27;;
17365;SDS011;8800;50.118;9.900;2023-03-31T01:53:10;8.85;;;1.92;;
17365;SDS011;8800;50.118;9.900;2023-03-31T01:55:44;5.07;;;1.10;;
17365;SDS011;8800;50.118;9.900;2023-03-31T01:58:12;4.93;;;1.42;;
17365;SDS011;8800;50.118;9.900;2023-03-31T02:00:42;9.88;;;2.00;;
17365;SDS011;8800;50.118;9.900;2023-03-31T02:03:13;9.90;;;3.80;;
17365;SDS011;8800;50.118;9.900;2023-03-31T02:05:42;21.10;;;6.22;;
17365;SDS011;8800;50.118;9.900;2023-03-31T02:08:10;25.00;;;6.60;;
17365;SDS011;8800;50.118;9.900;2023-03-31T02:10:39;36.90;;;11.20;;
17365;SDS011;8800;50.118;9.900;2023-03-31T02:13:07;15.40;;;4.55;;
17365;SDS011;8800;50.118;9.900;2023-03-31T02:15:35;9.32;;;3.35;;
17365;SDS011;8800;50.118;9.900;2023-03-31T02:18:03;12.65;;;5.45;;
17365;SDS011;8800;50.118;9.900;2023-03-31T02:20:35;8.90;;;3.72;;
17365;SDS011;8800;50.118;9.900;2023-03-31T02:23:03;5.50;;;1.80;;
17365;SDS011;8800;50.118;9.900;2023-03-31T02:25:31;6.10;;;1.20;;
17365;SDS011;8800;50.118;9.900;2023-03-31T02:28:00;3.75;;;0.90;;
17365;SDS011;8800;50.118;9.900;2023-03-31T02:30:31;6.05;;;1.10;;
17365;SDS011;8800;50.118;9.900;2023-03-31T02:33:01;2.85;;;0.95;;
17365;SDS011;8800;50.118;9.900;2023-03-31T02:35:29;3.40;;;0.95;;
17365;SDS011;8800;50.118;9.900;2023-03-31T02:37:55;5.78;;;0.93;;
17365;SDS011;8800;50.118;9.900;2023-03-31T02:40:23;7.80;;;1.65;;
17365;SDS011;8800;50.118;9.900;2023-03-31T02:42:51;5.60;;;1.40;;
17365;SDS011;8800;50.118;9.900;2023-03-31T02:45:42;4.93;;;1.10;;
17365;SDS011;8800;50.118;9.900;2023-03-31T02:48:09;4.25;;;1.00;;
17365;SDS011;8800;50.118;9.900;2023-03-31T02:50:39;6.28;;;1.33;;
17365;SDS011;8800;50.118;9.900;2023-03-31T02:53:12;7.25;;;1.40;;
17365;SDS011;8800;50.118;9.900;2023-03-31T02:55:46;6.28;;;0.88;;
17365;SDS011;8800;50.118;9.900;2023-03-31T02:58:23;6.03;;;1.00;;
17365;SDS011;8800;50.118;9.900;2023-03-31T03:01:00;6.93;;;2.13;;
17365;SDS011;8800;50.118;9.900;2023-03-31T03:03:32;5.88;;;0.90;;
17365;SDS011;8800;50.118;9.900;2023-03-31T03:06:03;3.42;;;1.02;;
17365;SDS011;8800;50.118;9.900;2023-03-31T03:08:35;3.45;;;0.93;;
17365;SDS011;8800;50.118;9.900;2023-03-31T03:11:08;3.72;;;0.80;;
17365;SDS011;8800;50.118;9.900;2023-03-31T03:13:43;4.38;;;0.90;;
17365;SDS011;8800;50.118;9.900;2023-03-31T03:16:13;7.35;;;1.30;;
17365;SDS011;8800;50.118;9.900;2023-03-31T03:18:43;6.25;;;1.00;;
17365;SDS011;8800;50.118;9.900;2023-03-31T03:21:09;7.25;;;1.45;;
17365;SDS011;8800;50.118;9.900;2023-03-31T03:23:36;10.45;;;2.00;;
17365;SDS011;8800;50.118;9.900;2023-03-31T03:26:02;7.05;;;1.85;;
17365;SDS011;8800;50.118;9.900;2023-03-31T03:28:29;4.53;;;1.63;;
17365;SDS011;8800;50.118;9.900;2023-03-31T03:30:55;6.60;;;1.33;;
17365;SDS011;8800;50.118;9.900;2023-03-31T03:33:23;6.40;;;1.52;;
17365;SDS011;8800;50.118;9.900;2023-03-31T03:35:50;3.08;;;0.95;;
17365;SDS011;8800;50.118;9.900;2023-03-31T03:38:16;3.70;;;1.00;;
17365;SDS011;8800;50.118;9.900;2023-03-31T03:40:43;6.53;;;1.02;;
17365;SDS011;8800;50.118;9.900;2023-03-31T03:43:09;7.05;;;1.10;;
17365;SDS011;8800;50.118;9.900;2023-03-31T03:45:35;2.78;;;0.88;;
17365;SDS011;8800;50.118;9.900;2023-03-31T03:48:02;2.28;;;1.00;;
17365;SDS011;8800;50.118;9.900;2023-03-31T03:50:30;6.82;;;1.90;;
17365;SDS011;8800;50.118;9.900;2023-03-31T03:52:56;6.85;;;2.17;;
17365;SDS011;8800;50.118;9.900;2023-03-31T03:55:22;8.60;;;2.38;;
17365;SDS011;8800;50.118;9.900;2023-03-31T03:57:49;9.40;;;3.88;;
17365;SDS011;8800;50.118;9.900;2023-03-31T04:00:16;6.00;;;2.50;;
17365;SDS011;8800;50.118;9.900;2023-03-31T04:02:42;8.02;;;2.70;;
17365;SDS011;8800;50.118;9.900;2023-03-31T04:05:09;8.95;;;2.58;;
17365;SDS011;8800;50.118;9.900;2023-03-31T04:07:37;8.10;;;2.22;;
17365;SDS011;8800;50.118;9.900;2023-03-31T04:10:03;6.68;;;2.67;;
17365;SDS011;8800;50.118;9.900;2023-03-31T04:12:30;9.00;;;2.03;;
17365;SDS011;8800;50.118;9.900;2023-03-31T04:14:59;8.20;;;2.10;;
17365;SDS011;8800;50.118;9.900;2023-03-31T04:17:25;8.77;;;1.42;;
17365;SDS011;8800;50.118;9.900;2023-03-31T04:19:58;6.28;;;1.65;;
17365;SDS011;8800;50.118;9.900;2023-03-31T04:22:26;5.93;;;2.50;;
17365;SDS011;8800;50.118;9.900;2023-03-31T04:24:54;9.98;;;2.40;;
17365;SDS011;8800;50.118;9.900;2023-03-31T04:27:22;7.07;;;1.85;;
17365;SDS011;8800;50.118;9.900;2023-03-31T04:29:51;9.32;;;2.03;;
17365;SDS011;8800;50.118;9.900;2023-03-31T04:32:18;8.27;;;1.73;;
17365;SDS011;8800;50.118;9.900;2023-03-31T04:34:45;11.20;;;2.38;;
17365;SDS011;8800;50.118;9.900;2023-03-31T04:37:12;5.75;;;2.53;;
17365;SDS011;8800;50.118;9.900;2023-03-31T04:39:38;13.25;;;4.60;;
17365;SDS011;8800;50.118;9.900;2023-03-31T04:42:06;15.38;;;3.13;;
17365;SDS011;8800;50.118;9.900;2023-03-31T04:44:32;12.63;;;3.35;;
17365;SDS011;8800;50.118;9.900;2023-03-31T04:46:59;12.52;;;2.10;;
17365;SDS011;8800;50.118;9.900;2023-03-31T04:49:27;10.93;;;1.80;;
17365;SDS011;8800;50.118;9.900;2023-03-31T04:51:57;8.23;;;1.85;;
17365;SDS011;8800;50.118;9.900;2023-03-31T04:54:23;12.55;;;5.65;;
17365;SDS011;8800;50.118;9.900;2023-03-31T04:56:50;7.65;;;2.80;;
17365;SDS011;8800;50.118;9.900;2023-03-31T04:59:18;10.85;;;1.85;;
17365;SDS011;8800;50.118;9.900;2023-03-31T05:01:44;6.40;;;1.60;;
17365;SDS011;8800;50.118;9.900;2023-03-31T05:04:11;7.30;;;2.53;;
17365;SDS011;8800;50.118;9.900;2023-03-31T05:06:37;11.15;;;1.85;;
17365;SDS011;8800;50.118;9.900;2023-03-31T05:09:03;10.23;;;2.53;;
17365;SDS011;8800;50.118;9.900;2023-03-31T05:11:30;13.10;;;3.08;;
17365;SDS011;8800;50.118;9.900;2023-03-31T05:13:56;8.43;;;2.20;;
17365;SDS011;8800;50.118;9.900;2023-03-31T05:16:24;13.05;;;2.95;;
17365;SDS011;8800;50.118;9.900;2023-03-31T05:18:51;14.07;;;4.20;;
17365;SDS011;8800;50.118;9.900;2023-03-31T05:21:19;15.90;;;3.95;;
17365;SDS011;8800;50.118;9.900;2023-03-31T05:23:46;9.40;;;3.40;;
17365;SDS011;8800;50.118;9.900;2023-03-31T05:26:12;7.63;;;2.38;;
17365;SDS011;8800;50.118;9.900;2023-03-31T05:28:39;10.85;;;3.35;;
17365;SDS011;8800;50.118;9.900;2023-03-31T05:31:06;10.10;;;3.53;;
17365;SDS011;8800;50.118;9.900;2023-03-31T05:33:34;12.65;;;4.70;;
17365;SDS011;8800;50.118;9.900;2023-03-31T05:36:04;13.35;;;5.32;;
17365;SDS011;8800;50.118;9.900;2023-03-31T05:38:31;7.60;;;2.00;;
17365;SDS011;8800;50.118;9.900;2023-03-31T05:40:58;10.45;;;2.60;;
17365;SDS011;8800;50.118;9.900;2023-03-31T05:43:25;13.45;;;2.67;;
17365;SDS011;8800;50.118;9.900;2023-03-31T05:45:51;6.32;;;1.40;;
17365;SDS011;8800;50.118;9.900;2023-03-31T05:48:17;7.40;;;1.20;;
17365;SDS011;8800;50.118;9.900;2023-03-31T05:50:46;6.50;;;1.48;;
17365;SDS011;8800;50.118;9.900;2023-03-31T05:53:13;6.50;;;2.08;;
17365;SDS011;8800;50.118;9.900;2023-03-31T05:55:39;16.52;;;4.20;;
17365;SDS011;8800;50.118;9.900;2023-03-31T05:58:06;9.23;;;3.35;;
17365;SDS011;8800;50.118;9.900;2023-03-31T06:00:32;10.68;;;2.70;;
17365;SDS011;8800;50.118;9.900;2023-03-31T06:03:00;9.38;;;3.00;;
17365;SDS011;8800;50.118;9.900;2023-03-31T06:05:26;11.65;;;4.90;;
17365;SDS011;8800;50.118;9.900;2023-03-31T06:07:56;7.55;;;2.70;;
17365;SDS011;8800;50.118;9.900;2023-03-31T06:10:22;9.05;;;3.60;;
17365;SDS011;8800;50.118;9.900;2023-03-31T06:12:49;9.63;;;2.60;;
17365;SDS011;8800;50.118;9.900;2023-03-31T06:15:15;9.38;;;2.90;;
17365;SDS011;8800;50.118;9.900;2023-03-31T06:17:41;7.75;;;1.83;;
17365;SDS011;8800;50.118;9.900;2023-03-31T06:20:08;7.28;;;3.42;;
17365;SDS011;8800;50.118;9.900;2023-03-31T06:22:35;10.15;;;3.17;;
17365;SDS011;8800;50.118;9.900;2023-03-31T06:25:03;7.65;;;2.05;;
17365;SDS011;8800;50.118;9.900;2023-03-31T06:27:29;6.28;;;1.48;;
17365;SDS011;8800;50.118;9.900;2023-03-31T06:29:55;6.00;;;1.40;;
17365;SDS011;8800;50.118;9.900;2023-03-31T06:32:22;9.55;;;1.80;;
17365;SDS011;8800;50.118;9.900;2023-03-31T06:34:48;8.57;;;1.90;;
17365;SDS011;8800;50.118;9.900;2023-03-31T06:37:14;5.03;;;1.30;;
17365;SDS011;8800;50.118;9.900;2023-03-31T06:39:41;4.82;;;1.20;;
17365;SDS011;8800;50.118;9.900;2023-03-31T06:42:10;5.68;;;1.30;;
17365;SDS011;8800;50.118;9.900;2023-03-31T06:44:36;7.05;;;1.20;;
17365;SDS011;8800;50.118;9.900;2023-03-31T06:47:02;5.28;;;1.30;;
17365;SDS011;8800;50.118;9.900;2023-03-31T06:49:29;6.22;;;1.48;;
17365;SDS011;8800;50.118;9.900;2023-03-31T06:51:55;7.32;;;1.50;;
17365;SDS011;8800;50.118;9.900;2023-03-31T06:54:22;6.78;;;1.50;;
17365;SDS011;8800;50.118;9.900;2023-03-31T06:56:48;6.25;;;1.40;;
17365;SDS011;8800;50.118;9.900;2023-03-31T06:59:16;4.93;;;1.60;;
17365;SDS011;8800;50.118;9.900;2023-03-31T07:01:42;7.43;;;1.35;;
17365;SDS011;8800;50.118;9.900;2023-03-31T07:04:10;5.88;;;1.48;;
17365;SDS011;8800;50.118;9.900;2023-03-31T07:06:36;5.80;;;2.15;;
17365;SDS011;8800;50.118;9.900;2023-03-31T07:09:02;7.93;;;2.03;;
17365;SDS011;8800;50.118;9.900;2023-03-31T07:11:29;3.92;;;1.60;;
17365;SDS011;8800;50.118;9.900;2023-03-31T07:13:55;9.73;;;1.60;;
17365;SDS011;8800;50.118;9.900;2023-03-31T07:16:23;7.70;;;1.60;;
17365;SDS011;8800;50.118;9.900;2023-03-31T07:18:49;3.78;;;1.33;;
17365;SDS011;8800;50.118;9.900;2023-03-31T07:21:18;8.10;;;1.52;;
17365;SDS011;8800;50.118;9.900;2023-03-31T07:23:44;6.70;;;1.73;;
17365;SDS011;8800;50.118;9.900;2023-03-31T07:26:10;4.53;;;1.60;;
17365;SDS011;8800;50.118;9.900;2023-03-31T07:28:37;6.40;;;1.52;;
17365;SDS011;8800;50.118;9.900;2023-03-31T07:31:09;8.30;;;2.53;;
17365;SDS011;8800;50.118;9.900;2023-03-31T07:33:36;16.38;;;7.78;;
17365;SDS011;8800;50.118;9.900;2023-03-31T07:36:03;12.93;;;4.78;;
17365;SDS011;8800;50.118;9.900;2023-03-31T07:38:30;9.52;;;1.95;;
17365;SDS011;8800;50.118;9.900;2023-03-31T07:40:57;6.18;;;1.73;;
17365;SDS011;8800;50.118;9.900;2023-03-31T07:43:24;7.68;;;1.88;;
17365;SDS011;8800;50.118;9.900;2023-03-31T07:45:50;8.88;;;1.83;;
17365;SDS011;8800;50.118;9.900;2023-03-31T07:48:16;5.28;;;1.83;;
17365;SDS011;8800;50.118;9.900;2023-03-31T07:50:44;9.32;;;1.77;;
17365;SDS011;8800;50.118;9.900;2023-03-31T07:53:10;7.53;;;1.58;;
17365;SDS011;8800;50.118;9.900;2023-03-31T07:55:39;6.90;;;2.00;;
17365;SDS011;8800;50.118;9.900;2023-03-31T07:58:05;6.45;;;1.85;;
17365;SDS011;8800;50.118;9.900;2023-03-31T08:00:32;8.05;;;1.85;;
17365;SDS011;8800;50.118;9.900;2023-03-31T08:02:58;8.48;;;1.83;;
17365;SDS011;8800;50.118;9.900;2023-03-31T08:05:24;4.28;;;1.65;;
17365;SDS011;8800;50.118;9.900;2023-03-31T08:07:53;5.72;;;1.70;;
17365;SDS011;8800;50.118;9.900;2023-03-31T08:10:20;5.30;;;1.88;;
17365;SDS011;8800;50.118;9.900;2023-03-31T08:12:48;7.07;;;1.83;;
17365;SDS011;8800;50.118;9.900;2023-03-31T08:15:15;6.22;;;1.88;;
17365;SDS011;8800;50.118;9.900;2023-03-31T08:17:41;7.78;;;1.92;;
17365;SDS011;8800;50.118;9.900;2023-03-31T08:20:08;6.70;;;1.80;;
17365;SDS011;8800;50.118;9.900;2023-03-31T08:22:35;6.65;;;2.15;;
17365;SDS011;8800;50.118;9.900;2023-03-31T08:25:03;9.32;;;1.90;;
17365;SDS011;8800;50.118;9.900;2023-03-31T08:27:31;4.43;;;1.70;;
17365;SDS011;8800;50.118;9.900;2023-03-31T08:29:57;9.98;;;2.40;;
17365;SDS011;8800;50.118;9.900;2023-03-31T08:32:27;5.32;;;1.75;;
17365;SDS011;8800;50.118;9.900;2023-03-31T08:34:53;5.57;;;1.90;;
17365;SDS011;8800;50.118;9.900;2023-03-31T08:37:20;8.90;;;2.25;;
17365;SDS011;8800;50.118;9.900;2023-03-31T08:39:46;8.68;;;2.17;;
17365;SDS011;8800;50.118;9.900;2023-03-31T08:42:14;8.00;;;2.50;;
17365;SDS011;8800;50.118;9.900;2023-03-31T08:44:41;9.82;;;2.70;;
17365;SDS011;8800;50.118;9.900;2023-03-31T08:47:12;7.97;;;2.47;;
17365;SDS011;8800;50.118;9.900;2023-03-31T08:49:41;8.32;;;2.28;;
17365;SDS011;8800;50.118;9.900;2023-03-31T08:52:10;7.85;;;3.10;;
17365;SDS011;8800;50.118;9.900;2023-03-31T08:54:39;9.63;;;2.90;;
17365;SDS011;8800;50.118;9.900;2023-03-31T08:57:10;9.70;;;3.03;;
17365;SDS011;8800;50.118;9.900;2023-03-31T08:59:39;8.65;;;2.72;;
17365;SDS011;8800;50.118;9.900;2023-03-31T09:02:09;14.55;;;4.68;;
17365;SDS011;8800;50.118;9.900;2023-03-31T09:04:48;11.88;;;3.83;;
17365;SDS011;8800;50.118;9.900;2023-03-31T09:07:18;9.80;;;3.72;;
17365;SDS011;8800;50.118;9.900;2023-03-31T09:09:47;12.50;;;4.57;;
17365;SDS011;8800;50.118;9.900;2023-03-31T09:12:17;7.32;;;2.80;;
17365;SDS011;8800;50.118;9.900;2023-03-31T09:14:47;8.45;;;3.65;;
17365;SDS011;8800;50.118;9.900;2023-03-31T09:17:17;10.45;;;3.40;;
17365;SDS011;8800;50.118;9.900;2023-03-31T09:19:47;7.07;;;3.08;;
17365;SDS011;8800;50.118;9.900;2023-03-31T09:22:15;6.25;;;2.40;;
17365;SDS011;8800;50.118;9.900;2023-03-31T09:24:45;8.43;;;2.65;;
17365;SDS011;8800;50.118;9.900;2023-03-31T09:27:12;7.85;;;3.38;;
17365;SDS011;8800;50.118;9.900;2023-03-31T09:29:40;10.02;;;2.80;;
17365;SDS011;8800;50.118;9.900;2023-03-31T09:32:12;4.82;;;2.58;;
17365;SDS011;8800;50.118;9.900;2023-03-31T09:34:39;6.63;;;2.58;;
17365;SDS011;8800;50.118;9.900;2023-03-31T09:37:07;6.68;;;3.08;;
17365;SDS011;8800;50.118;9.900;2023-03-31T09:39:34;4.25;;;2.28;;
17365;SDS011;8800;50.118;9.900;2023-03-31T09:42:01;4.03;;;2.35;;
17365;SDS011;8800;50.118;9.900;2023-03-31T09:44:29;3.85;;;2.40;;
17365;SDS011;8800;50.118;9.900;2023-03-31T09:46:59;7.45;;;2.72;;
17365;SDS011;8800;50.118;9.900;2023-03-31T09:49:30;11.05;;;5.28;;
17365;SDS011;8800;50.118;9.900;2023-03-31T09:52:02;12.27;;;5.10;;
17365;SDS011;8800;50.118;9.900;2023-03-31T09:54:32;16.02;;;6.38;;
17365;SDS011;8800;50.118;9.900;2023-03-31T09:57:00;21.83;;;5.10;;
17365;SDS011;8800;50.118;9.900;2023-03-31T09:59:29;6.10;;;2.20;;
17365;SDS011;8800;50.118;9.900;2023-03-31T10:01:57;5.35;;;2.30;;
17365;SDS011;8800;50.118;9.900;2023-03-31T10:04:24;7.72;;;2.50;;
17365;SDS011;8800;50.118;9.900;2023-03-31T10:06:52;5.32;;;2.60;;
17365;SDS011;8800;50.118;9.900;2023-03-31T10:09:19;5.45;;;2.28;;
17365;SDS011;8800;50.118;9.900;2023-03-31T10:11:52;6.60;;;2.58;;
17365;SDS011;8800;50.118;9.900;2023-03-31T10:14:23;9.35;;;3.92;;
17365;SDS011;8800;50.118;9.900;2023-03-31T10:16:52;9.23;;;4.22;;
17365;SDS011;8800;50.118;9.900;2023-03-31T10:19:20;7.78;;;3.08;;
17365;SDS011;8800;50.118;9.900;2023-03-31T10:21:47;5.90;;;2.17;;
17365;SDS011;8800;50.118;9.900;2023-03-31T10:24:18;4.07;;;1.80;;
17365;SDS011;8800;50.118;9.900;2023-03-31T10:26:45;5.05;;;2.28;;
17365;SDS011;8800;50.118;9.900;2023-03-31T10:29:14;4.47;;;1.77;;
17365;SDS011;8800;50.118;9.900;2023-03-31T10:31:41;3.38;;;1.60;;
17365;SDS011;8800;50.118;9.900;2023-03-31T10:34:11;4.22;;;1.40;;
17365;SDS011;8800;50.118;9.900;2023-03-31T10:36:41;4.03;;;1.75;;
17365;SDS011;8800;50.118;9.900;2023-03-31T10:39:11;5.80;;;1.33;;
17365;SDS011;8800;50.118;9.900;2023-03-31T10:41:41;4.13;;;0.93;;
17365;SDS011;8800;50.118;9.900;2023-03-31T10:44:10;4.50;;;1.45;;
17365;SDS011;8800;50.118;9.900;2023-03-31T10:46:55;3.90;;;1.30;;
17365;SDS011;8800;50.118;9.900;2023-03-31T10:49:28;3.30;;;1.00;;
17365;SDS011;8800;50.118;9.900;2023-03-31T10:51:55;3.53;;;1.63;;
17365;SDS011;8800;50.118;9.900;2023-03-31T10:54:22;4.40;;;1.23;;
17365;SDS011;8800;50.118;9.900;2023-03-31T10:56:51;5.50;;;2.42;;
17365;SDS011;8800;50.118;9.900;2023-03-31T10:59:33;4.00;;;1.80;;
17365;SDS011;8800;50.118;9.900;2023-03-31T11:02:15;8.70;;;3.35;;
17365;SDS011;8800;50.118;9.900;2023-03-31T11:04:51;7.03;;;2.47;;
17365;SDS011;8800;50.118;9.900;2023-03-31T11:07:28;4.30;;;1.25;;
17365;SDS011;8800;50.118;9.900;2023-03-31T11:10:01;4.35;;;0.88;;
17365;SDS011;8800;50.118;9.900;2023-03-31T11:12:30;7.47;;;2.45;;
17365;SDS011;8800;50.118;9.900;2023-03-31T11:15:02;1.73;;;0.80;;
17365;SDS011;8800;50.118;9.900;2023-03-31T11:17:33;5.00;;;1.77;;
17365;SDS011;8800;50.118;9.900;2023-03-31T11:20:02;2.60;;;1.15;;
17365;SDS011;8800;50.118;9.900;2023-03-31T11:22:39;5.13;;;0.80;;
17365;SDS011;8800;50.118;9.900;2023-03-31T11:25:18;3.28;;;1.27;;
17365;SDS011;8800;50.118;9.900;2023-03-31T11:27:51;7.38;;;1.63;;
17365;SDS011;8800;50.118;9.900;2023-03-31T11:30:20;1.50;;;0.77;;
17365;SDS011;8800;50.118;9.900;2023-03-31T11:32:52;2.20;;;0.88;;
17365;SDS011;8800;50.118;9.900;2023-03-31T11:38:17;3.22;;;1.63;;
17365;SDS011;8800;50.118;9.900;2023-03-31T11:40:51;3.15;;;0.70;;
17365;SDS011;8800;50.118;9.900;2023-03-31T11:43:23;3.10;;;0.88;;
17365;SDS011;8800;50.118;9.900;2023-03-31T11:45:53;1.33;;;0.70;;
17365;SDS011;8800;50.118;9.900;2023-03-31T11:48:24;2.90;;;1.02;;
17365;SDS011;8800;50.118;9.900;2023-03-31T11:50:52;4.38;;;1.02;;
17365;SDS011;8800;50.118;9.900;2023-03-31T11:53:22;3.38;;;1.10;;
17365;SDS011;8800;50.118;9.900;2023-03-31T11:55:50;2.92;;;0.80;;
17365;SDS011;8800;50.118;9.900;2023-03-31T11:58:21;6.97;;;1.80;;
17365;SDS011;8800;50.118;9.900;2023-03-31T12:00:50;4.03;;;1.20;;
17365;SDS011;8800;50.118;9.900;2023-03-31T12:03:18;8.38;;;1.98;;
17365;SDS011;8800;50.118;9.900;2023-03-31T12:05:46;4.80;;;1.35;;
17365;SDS011;8800;50.118;9.900;2023-03-31T12:08:15;3.75;;;1.52;;
17365;SDS011;8800;50.118;9.900;2023-03-31T12:10:43;3.17;;;0.70;;
17365;SDS011;8800;50.118;9.900;2023-03-31T12:13:15;9.73;;;3.97;;
17365;SDS011;8800;50.118;9.900;2023-03-31T12:15:50;11.05;;;3.28;;
17365;SDS011;8800;50.118;9.900;2023-03-31T12:18:20;6.75;;;2.35;;
17365;SDS011;8800;50.118;9.900;2023-03-31T12:20:51;5.20;;;1.40;;
17365;SDS011;8800;50.118;9.900;2023-03-31T12:23:19;6.45;;;1.60;;
17365;SDS011;8800;50.118;9.900;2023-03-31T12:25:50;5.32;;;1.20;;
17365;SDS011;8800;50.118;9.900;2023-03-31T12:28:17;2.65;;;1.30;;
17365;SDS011;8800;50.118;9.900;2023-03-31T12:30:44;6.43;;;2.15;;
17365;SDS011;8800;50.118;9.900;2023-03-31T12:33:14;5.32;;;1.40;;
17365;SDS011;8800;50.118;9.900;2023-03-31T12:35:45;8.13;;;1.30;;
17365;SDS011;8800;50.118;9.900;2023-03-31T12:38:23;4.47;;;1.40;;
17365;SDS011;8800;50.118;9.900;2023-03-31T12:40:56;6.30;;;1.25;;
17365;SDS011;8800;50.118;9.900;2023-03-31T12:43:29;4.78;;;1.50;;
17365;SDS011;8800;50.118;9.900;2023-03-31T12:46:02;2.65;;;1.50;;
17365;SDS011;8800;50.118;9.900;2023-03-31T12:48:43;4.35;;;0.98;;
17365;SDS011;8800;50.118;9.900;2023-03-31T12:51:19;9.60;;;3.03;;
17365;SDS011;8800;50.118;9.900;2023-03-31T12:53:54;5.90;;;1.23;;
17365;SDS011;8800;50.118;9.900;2023-03-31T12:56:23;3.05;;;1.05;;
17365;SDS011;8800;50.118;9.900;2023-03-31T12:58:49;6.55;;;2.35;;
17365;SDS011;8800;50.118;9.900;2023-03-31T13:01:17;4.97;;;0.93;;
17365;SDS011;8800;50.118;9.900;2023-03-31T13:03:46;5.82;;;1.50;;
17365;SDS011;8800;50.118;9.900;2023-03-31T13:08:54;5.45;;;0.88;;
17365;SDS011;8800;50.118;9.900;2023-03-31T13:11:22;5.55;;;1.13;;
17365;SDS011;8800;50.118;9.900;2023-03-31T13:13:56;6.78;;;1.15;;
17365;SDS011;8800;50.118;9.900;2023-03-31T13:16:23;6.80;;;1.02;;
17365;SDS011;8800;50.118;9.900;2023-03-31T13:18:51;1.92;;;0.80;;
17365;SDS011;8800;50.118;9.900;2023-03-31T13:21:18;5.05;;;1.20;;
17365;SDS011;8800;50.118;9.900;2023-03-31T13:23:45;3.90;;;1.00;;
17365;SDS011;8800;50.118;9.900;2023-03-31T13:29:08;6.68;;;1.00;;
17365;SDS011;8800;50.118;9.900;2023-03-31T13:34:17;3.80;;;0.85;;
17365;SDS011;8800;50.118;9.900;2023-03-31T13:36:54;2.97;;;1.00;;
17365;SDS011;8800;50.118;9.900;2023-03-31T13:42:20;5.57;;;0.82;;
17365;SDS011;8800;50.118;9.900;2023-03-31T13:44:51;7.75;;;1.08;;
17365;SDS011;8800;50.118;9.900;2023-03-31T13:50:26;3.85;;;1.10;;
17365;SDS011;8800;50.118;9.900;2023-03-31T13:52:56;3.35;;;0.80;;
17365;SDS011;8800;50.118;9.900;2023-03-31T13:55:33;2.47;;;0.90;;
17365;SDS011;8800;50.118;9.900;2023-03-31T13:58:17;7.53;;;1.23;;
17365;SDS011;8800;50.118;9.900;2023-03-31T14:00:46;7.18;;;1.33;;
17365;SDS011;8800;50.118;9.900;2023-03-31T14:03:18;4.30;;;1.10;;
17365;SDS011;8800;50.118;9.900;2023-03-31T14:05:51;6.57;;;2.10;;
17365;SDS011;8800;50.118;9.900;2023-03-31T14:08:19;4.72;;;1.33;;
17365;SDS011;8800;50.118;9.900;2023-03-31T14:10:49;4.88;;;1.30;;
17365;SDS011;8800;50.118;9.900;2023-03-31T14:13:16;6.93;;;1.90;;
17365;SDS011;8800;50.118;9.900;2023-03-31T14:15:44;5.78;;;1.88;;
17365;SDS011;8800;50.118;9.900;2023-03-31T14:18:12;3.05;;;1.70;;
17365;SDS011;8800;50.118;9.900;2023-03-31T14:20:46;3.70;;;1.00;;
17365;SDS011;8800;50.118;9.900;2023-03-31T14:23:18;3.80;;;1.00;;
17365;SDS011;8800;50.118;9.900;2023-03-31T14:25:48;1.85;;;0.77;;
17365;SDS011;8800;50.118;9.900;2023-03-31T14:28:31;3.83;;;0.85;;
17365;SDS011;8800;50.118;9.900;2023-03-31T14:31:06;3.33;;;0.88;;
17365;SDS011;8800;50.118;9.900;2023-03-31T14:33:37;2.38;;;1.00;;
17365;SDS011;8800;50.118;9.900;2023-03-31T14:36:08;6.35;;;1.30;;
17365;SDS011;8800;50.118;9.900;2023-03-31T14:38:38;8.75;;;3.28;;
17365;SDS011;8800;50.118;9.900;2023-03-31T14:41:05;9.25;;;3.70;;
17365;SDS011;8800;50.118;9.900;2023-03-31T14:43:32;12.35;;;6.28;;
17365;SDS011;8800;50.118;9.900;2023-03-31T14:46:00;5.90;;;3.33;;
17365;SDS011;8800;50.118;9.900;2023-03-31T14:48:27;4.78;;;1.35;;
17365;SDS011;8800;50.118;9.900;2023-03-31T14:50:55;6.50;;;1.55;;
17365;SDS011;8800;50.118;9.900;2023-03-31T14:53:22;5.93;;;1.85;;
17365;SDS011;8800;50.118;9.900;2023-03-31T14:55:51;3.08;;;0.80;;
17365;SDS011;8800;50.118;9.900;2023-03-31T14:58:22;2.88;;;0.40;;
17365;SDS011;8800;50.118;9.900;2023-03-31T15:00:49;2.30;;;0.75;;
17365;SDS011;8800;50.118;9.900;2023-03-31T15:03:17;1.55;;;0.50;;
17365;SDS011;8800;50.118;9.900;2023-03-31T15:05:43;1.70;;;0.60;;
17365;SDS011;8800;50.118;9.900;2023-03-31T15:08:11;3.75;;;1.95;;
17365;SDS011;8800;50.118;9.900;2023-03-31T15:10:41;4.05;;;1.73;;
17365;SDS011;8800;50.118;9.900;2023-03-31T15:13:11;2.70;;;0.55;;
17365;SDS011;8800;50.118;9.900;2023-03-31T15:15:40;3.22;;;1.27;;
17365;SDS011;8800;50.118;9.900;2023-03-31T15:18:09;5.13;;;1.20;;
17365;SDS011;8800;50.118;9.900;2023-03-31T15:20:37;3.42;;;1.10;;
17365;SDS011;8800;50.118;9.900;2023-03-31T15:23:16;1.63;;;0.82;;
17365;SDS011;8800;50.118;9.900;2023-03-31T15:25:45;3.30;;;0.80;;
17365;SDS011;8800;50.118;9.900;2023-03-31T15:28:13;0.70;;;0.30;;
17365;SDS011;8800;50.118;9.900;2023-03-31T15:30:41;6.15;;;2.30;;
17365;SDS011;8800;50.118;9.900;2023-03-31T15:33:14;5.18;;;2.08;;